createdAt,value
2018-12-02T00:00:33.986Z,79.67
2018-12-02T00:03:37.295Z,81.47
2018-12-02T00:06:40.451Z,90.27
2018-12-02T00:09:43.779Z,68.07
2018-12-02T00:12:46.953Z,78.40
2018-12-02T00:15:50.068Z,93.33
2018-12-02T00:18:53.251Z,105.33
2018-12-02T00:21:56.463Z,97.20
2018-12-02T00:24:59.503Z,94.53
2018-12-02T00:28:02.738Z,106.70
2018-12-02T00:31:06.224Z,116.80
2018-12-02T00:34:09.303Z,134.53
2018-12-02T00:37:12.527Z,123.23
2018-12-02T00:40:16.413Z,124.70
2018-12-02T00:43:19.647Z,115.30
2018-12-02T00:46:22.723Z,122.90
2018-12-02T00:49:25.822Z,127.10
2018-12-02T00:52:28.887Z,108.40
2018-12-02T00:55:34.483Z,82.30
2018-12-02T00:58:37.551Z,108.63
2018-12-02T01:01:40.650Z,117.63
2018-12-02T01:04:43.695Z,117.03
2018-12-02T01:07:46.956Z,115.63
2018-12-02T01:10:49.999Z,109.40
2018-12-02T01:13:53.123Z,97.50
2018-12-02T01:16:56.182Z,115.23
2018-12-02T01:19:59.324Z,114.93
2018-12-02T01:23:02.379Z,163.87
2018-12-02T01:26:05.475Z,177.10
2018-12-02T01:29:08.603Z,108.70
2018-12-02T01:32:11.655Z,95.27
2018-12-02T01:35:15.800Z,97.57
2018-12-02T01:38:18.867Z,114.83
2018-12-02T01:41:21.997Z,137.80
2018-12-02T01:44:25.050Z,143.80
2018-12-02T01:47:28.211Z,109.93
2018-12-02T01:50:31.235Z,115.90
2018-12-02T01:53:34.399Z,126.00
2018-12-02T01:56:37.419Z,119.23
2018-12-02T01:59:40.751Z,99.87
2018-12-02T02:02:43.807Z,109.23
2018-12-02T02:05:47.976Z,116.27
2018-12-02T02:08:51.023Z,102.30
2018-12-02T02:11:54.254Z,100.73
2018-12-02T02:14:57.310Z,100.00
2018-12-02T02:18:00.406Z,82.50
2018-12-02T02:21:03.635Z,86.33
2018-12-02T02:24:06.687Z,83.53
2018-12-02T02:27:09.816Z,88.77
2018-12-02T02:30:15.805Z,90.73
2018-12-02T02:33:19.179Z,85.20
2018-12-02T02:36:22.240Z,93.77
2018-12-02T02:39:25.355Z,69.93
2018-12-02T02:42:28.420Z,73.67
2018-12-02T02:45:31.516Z,59.83
2018-12-02T02:48:34.604Z,90.37
2018-12-02T02:51:37.701Z,65.77
2018-12-02T02:54:40.788Z,70.33
2018-12-02T02:57:43.985Z,72.00
2018-12-02T03:00:47.383Z,73.20
2018-12-02T03:03:50.583Z,62.63
2018-12-02T03:06:53.784Z,58.40
2018-12-02T03:09:56.975Z,45.80
2018-12-02T03:13:00.315Z,63.20
2018-12-02T03:16:03.466Z,58.67
2018-12-02T03:19:06.589Z,61.73
2018-12-02T03:22:09.753Z,58.13
2018-12-02T03:25:15.795Z,62.30
2018-12-02T03:28:18.907Z,66.83
2018-12-02T03:31:22.076Z,67.10
2018-12-02T03:34:25.299Z,57.17
2018-12-02T03:37:28.491Z,53.13
2018-12-02T03:40:31.584Z,65.53
2018-12-02T03:43:34.682Z,60.90
2018-12-02T03:46:37.800Z,57.47
2018-12-02T03:49:40.866Z,44.30
2018-12-02T03:52:43.956Z,48.87
2018-12-02T03:55:47.183Z,52.20
2018-12-02T03:58:50.243Z,55.13
2018-12-02T04:01:53.335Z,51.70
2018-12-02T04:04:56.526Z,61.83
2018-12-02T04:07:59.624Z,69.50
2018-12-02T04:11:02.815Z,58.37
2018-12-02T04:14:06.635Z,49.77
2018-12-02T04:17:09.720Z,50.57
2018-12-02T04:20:15.349Z,50.00
2018-12-02T04:23:18.603Z,58.37
2018-12-02T04:26:21.660Z,62.77
2018-12-02T04:29:24.751Z,56.03
2018-12-02T04:32:27.847Z,51.37
2018-12-02T04:35:31.013Z,52.73
2018-12-02T04:38:34.131Z,52.40
2018-12-02T04:41:37.533Z,45.60
2018-12-02T04:44:40.720Z,68.17
2018-12-02T04:47:43.904Z,51.37
2018-12-02T04:50:47.147Z,44.93
2018-12-02T04:53:50.215Z,44.77
2018-12-02T04:56:53.286Z,44.90
2018-12-02T04:59:56.395Z,47.37
2018-12-02T05:02:59.487Z,44.40
2018-12-02T05:06:02.595Z,40.37
2018-12-02T05:09:06.703Z,48.30
2018-12-02T05:12:09.795Z,39.37
2018-12-02T05:15:14.507Z,46.17
2018-12-02T05:18:17.599Z,39.53
2018-12-02T05:21:20.607Z,48.23
2018-12-02T05:24:23.804Z,46.87
2018-12-02T05:27:26.928Z,44.43
2018-12-02T05:30:29.996Z,50.63
2018-12-02T05:33:33.079Z,47.90
2018-12-02T05:36:36.172Z,48.77
2018-12-02T05:39:39.470Z,50.87
2018-12-02T05:42:42.563Z,53.63
2018-12-02T05:45:45.651Z,45.37
2018-12-02T05:48:48.851Z,45.63
2018-12-02T05:51:51.940Z,45.00
2018-12-02T05:54:55.035Z,41.97
2018-12-02T05:57:58.126Z,39.83
2018-12-02T06:01:01.229Z,40.33
2018-12-02T06:04:04.619Z,39.57
2018-12-02T06:07:07.711Z,48.47
2018-12-02T06:10:13.874Z,36.87
2018-12-02T06:13:16.967Z,35.40
2018-12-02T06:16:20.062Z,41.97
2018-12-02T06:19:23.151Z,38.80
2018-12-02T06:22:26.347Z,36.70
2018-12-02T06:25:29.438Z,39.10
2018-12-02T06:28:32.530Z,34.37
2018-12-02T06:31:35.624Z,35.27
2018-12-02T06:34:38.723Z,34.17
2018-12-02T06:37:41.918Z,34.37
2018-12-02T06:40:45.007Z,31.73
2018-12-02T06:43:48.207Z,38.90
2018-12-02T06:46:51.298Z,35.53
2018-12-02T06:49:54.387Z,31.57
2018-12-02T06:52:57.647Z,36.40
2018-12-02T06:56:07.098Z,39.00
2018-12-02T06:59:22.275Z,28.63
2018-12-02T07:03:07.031Z,29.93
2018-12-02T07:06:10.067Z,29.63
2018-12-02T07:09:13.288Z,25.03
2018-12-02T07:12:16.346Z,33.83
2018-12-02T07:15:19.543Z,31.73
2018-12-02T07:18:26.255Z,31.43
2018-12-02T07:21:31.647Z,31.67
2018-12-02T07:24:38.819Z,34.37
2018-12-02T07:27:41.851Z,32.23
2018-12-02T07:30:44.947Z,29.83
2018-12-02T07:33:48.143Z,28.47
2018-12-02T07:36:51.339Z,27.57
2018-12-02T07:40:32.622Z,26.17
2018-12-02T07:43:35.718Z,24.83
2018-12-02T07:46:38.806Z,23.10
2018-12-02T07:49:41.903Z,25.03
2018-12-02T07:52:44.995Z,27.40
2018-12-02T07:55:48.275Z,25.40
2018-12-02T07:58:51.283Z,24.50
2018-12-02T08:01:54.479Z,31.53
2018-12-02T08:04:57.588Z,28.97
2018-12-02T08:08:01.243Z,24.33
2018-12-02T08:11:04.576Z,30.93
2018-12-02T08:14:07.667Z,25.90
2018-12-02T08:17:10.763Z,27.23
2018-12-02T08:20:16.414Z,25.83
2018-12-02T08:23:20.527Z,26.83
2018-12-02T08:26:23.622Z,28.80
2018-12-02T08:29:26.715Z,30.50
2018-12-02T08:32:29.811Z,22.30
2018-12-02T08:35:32.902Z,25.27
2018-12-02T08:38:35.995Z,24.40
2018-12-02T08:41:39.103Z,26.90
2018-12-02T08:44:42.278Z,30.60
2018-12-02T08:47:45.476Z,24.97
2018-12-02T08:50:48.568Z,23.30
2018-12-02T08:53:51.659Z,22.50
2018-12-02T08:56:54.832Z,22.00
2018-12-02T08:59:57.833Z,23.17
2018-12-02T09:03:02.631Z,21.97
2018-12-02T09:06:05.831Z,29.00
2018-12-02T09:09:09.992Z,24.53
2018-12-02T09:12:13.087Z,23.13
2018-12-02T09:15:16.177Z,28.47
2018-12-02T09:18:19.259Z,19.20
2018-12-02T09:21:22.365Z,23.53
2018-12-02T09:24:25.458Z,24.60
2018-12-02T09:27:28.546Z,24.20
2018-12-02T09:30:32.855Z,21.47
2018-12-02T09:33:35.843Z,21.37
2018-12-02T09:36:38.851Z,22.77
2018-12-02T09:39:41.943Z,22.10
2018-12-02T09:42:47.130Z,25.83
2018-12-02T09:45:50.737Z,20.87
2018-12-02T09:48:53.875Z,22.80
2018-12-02T09:51:56.975Z,19.93
2018-12-02T09:55:00.072Z,22.87
2018-12-02T09:58:03.238Z,22.80
2018-12-02T10:01:06.530Z,21.73
2018-12-02T10:04:09.551Z,24.37
2018-12-02T10:07:12.643Z,17.40
2018-12-02T10:10:22.104Z,22.93
2018-12-02T10:13:21.508Z,20.43
2018-12-02T10:16:24.586Z,20.63
2018-12-02T10:19:27.712Z,21.23
2018-12-02T10:22:30.807Z,18.67
2018-12-02T10:25:33.863Z,22.20
2018-12-02T10:28:36.999Z,17.27
2018-12-02T10:31:40.287Z,20.43
2018-12-02T10:34:43.349Z,21.57
2018-12-02T10:37:46.787Z,21.63
2018-12-02T10:40:49.835Z,17.40
2018-12-02T10:43:53.027Z,16.27
2018-12-02T10:46:56.127Z,21.43
2018-12-02T10:49:59.251Z,21.17
2018-12-02T10:53:03.727Z,19.80
2018-12-02T10:56:06.974Z,21.12
2018-12-02T10:59:10.031Z,20.93
2018-12-02T11:02:15.623Z,19.90
2018-12-02T11:05:18.798Z,18.57
2018-12-02T11:08:21.903Z,16.43
2018-12-02T11:11:24.963Z,14.80
2018-12-02T11:14:28.851Z,20.33
2018-12-02T11:17:32.207Z,15.20
2018-12-02T11:20:35.271Z,17.83
2018-12-02T11:23:38.383Z,17.07
2018-12-02T11:26:41.520Z,17.20
2018-12-02T11:29:44.680Z,17.13
2018-12-02T11:32:48.243Z,16.63
2018-12-02T11:35:51.363Z,15.20
2018-12-02T11:38:54.454Z,17.63
2018-12-02T11:41:58.148Z,14.73
2018-12-02T11:45:01.275Z,16.80
2018-12-02T11:48:04.934Z,12.73
2018-12-02T11:51:08.071Z,14.33
2018-12-02T11:54:11.131Z,15.83
2018-12-02T11:57:14.254Z,17.40
2018-12-02T12:00:24.156Z,16.20
2018-12-02T12:03:27.199Z,12.60
2018-12-02T12:06:30.263Z,16.27
2018-12-02T12:09:34.171Z,14.57
2018-12-02T12:12:38.064Z,12.07
2018-12-02T12:15:41.061Z,14.37
2018-12-02T12:18:44.199Z,10.40
2018-12-02T12:21:47.395Z,11.93
2018-12-02T12:24:50.455Z,10.97
2018-12-02T12:27:54.760Z,14.20
2018-12-02T12:30:57.867Z,13.93
2018-12-02T12:34:00.992Z,15.33
2018-12-02T12:37:04.327Z,16.87
2018-12-02T12:40:10.677Z,14.50
2018-12-02T12:43:34.101Z,12.93
2018-12-02T12:46:37.328Z,13.77
2018-12-02T12:49:40.382Z,12.57
2018-12-02T12:52:43.551Z,15.32
2018-12-02T12:55:50.922Z,13.10
2018-12-02T12:58:49.711Z,11.63
2018-12-02T13:01:52.858Z,12.90
2018-12-02T13:04:55.983Z,15.53
2018-12-02T13:07:59.068Z,13.97
2018-12-02T13:11:02.681Z,14.10
2018-12-02T13:14:06.595Z,13.53
2018-12-02T13:17:09.765Z,15.50
2018-12-02T13:20:19.294Z,14.20
2018-12-02T13:23:22.665Z,12.37
2018-12-02T13:26:25.969Z,11.67
2018-12-02T13:29:29.024Z,14.87
2018-12-02T13:32:32.368Z,15.50
2018-12-02T13:35:36.249Z,13.67
2018-12-02T13:38:39.487Z,13.57
2018-12-02T13:41:42.545Z,14.68
2018-12-02T13:44:45.764Z,14.30
2018-12-02T13:47:49.135Z,13.27
2018-12-02T13:50:52.457Z,16.37
2018-12-02T13:54:02.056Z,15.50
2018-12-02T13:57:06.463Z,13.80
2018-12-02T14:00:16.148Z,15.28
2018-12-02T14:03:19.336Z,15.70
2018-12-02T14:06:22.471Z,19.27
2018-12-02T14:09:25.527Z,17.07
2018-12-02T14:12:28.649Z,14.47
2018-12-02T14:16:47.377Z,17.53
2018-12-02T14:19:50.463Z,14.73
2018-12-02T14:22:53.565Z,13.67
2018-12-02T14:25:58.804Z,14.20
2018-12-02T14:29:34.964Z,13.63
2018-12-02T14:32:38.174Z,17.23
2018-12-02T14:35:41.314Z,16.10
2018-12-02T14:38:44.562Z,15.00
2018-12-02T14:41:47.858Z,13.67
2018-12-02T14:44:50.940Z,12.53
2018-12-02T14:47:54.146Z,15.10
2018-12-02T14:50:57.242Z,15.60
2018-12-02T14:54:00.984Z,16.73
2018-12-02T14:57:04.248Z,16.10
2018-12-02T15:00:18.801Z,14.27
2018-12-02T15:03:22.570Z,17.27
2018-12-02T15:06:25.876Z,17.53
2018-12-02T15:09:29.955Z,20.50
2018-12-02T15:12:33.112Z,19.20
2018-12-02T15:15:36.935Z,20.50
2018-12-02T15:18:40.122Z,25.50
2018-12-02T15:21:44.379Z,20.33
2018-12-02T15:24:47.547Z,20.40
2018-12-02T15:27:50.696Z,24.47
2018-12-02T15:30:53.914Z,22.10
2018-12-02T15:33:57.596Z,26.00
2018-12-02T15:37:00.729Z,23.10
2018-12-02T15:40:05.132Z,26.10
2018-12-02T15:43:08.246Z,25.40
2018-12-02T15:46:11.329Z,24.63
2018-12-02T15:49:26.813Z,26.77
2018-12-02T15:52:30.009Z,31.03
2018-12-02T15:55:34.125Z,29.70
2018-12-02T15:58:37.320Z,31.13
2018-12-02T16:01:40.718Z,32.00
2018-12-02T16:04:44.152Z,28.97
2018-12-02T16:07:47.833Z,35.93
2018-12-02T16:10:51.258Z,29.63
2018-12-02T16:13:54.730Z,32.87
2018-12-02T16:16:58.016Z,33.60
2018-12-02T16:20:01.322Z,29.93
2018-12-02T16:23:04.835Z,33.23
2018-12-02T16:26:08.124Z,25.57
2018-12-02T16:29:11.638Z,33.70
2018-12-02T16:32:14.982Z,27.20
2018-12-02T16:35:18.691Z,30.17
2018-12-02T16:38:21.928Z,29.77
2018-12-02T16:41:25.988Z,31.27
2018-12-02T16:44:29.323Z,26.37
2018-12-02T16:47:32.568Z,27.53
2018-12-02T16:50:37.118Z,26.47
2018-12-02T16:53:40.550Z,29.47
2018-12-02T16:56:44.006Z,25.23
2018-12-02T16:59:47.100Z,27.83
2018-12-02T17:02:50.793Z,26.55
2018-12-02T17:05:53.846Z,32.60
2018-12-02T17:08:58.199Z,34.57
2018-12-02T17:12:01.439Z,37.83
2018-12-02T17:15:11.833Z,31.73
2018-12-02T17:18:15.128Z,35.90
2018-12-02T17:21:18.348Z,38.30
2018-12-02T17:24:21.555Z,35.03
2018-12-02T17:27:25.392Z,32.27
2018-12-02T17:30:39.513Z,30.07
2018-12-02T17:33:42.564Z,31.47
2018-12-02T17:36:45.696Z,35.20
2018-12-02T17:39:51.713Z,35.87
2018-12-02T17:42:54.892Z,31.23
2018-12-02T17:45:58.009Z,35.63
2018-12-02T17:49:01.341Z,34.70
2018-12-02T17:52:05.202Z,31.37
2018-12-02T17:55:08.581Z,28.83
2018-12-02T17:58:11.709Z,32.10
2018-12-02T18:01:15.044Z,35.07
2018-12-02T18:04:18.231Z,35.30
2018-12-02T18:07:21.516Z,35.03
2018-12-02T18:10:24.836Z,37.10
2018-12-02T18:13:28.095Z,31.10
2018-12-02T18:16:31.427Z,32.07
2018-12-02T18:19:34.856Z,36.33
2018-12-02T18:22:38.192Z,32.67
2018-12-02T18:25:41.442Z,37.50
2018-12-02T18:28:44.795Z,35.13
2018-12-02T18:31:48.269Z,35.73
2018-12-02T18:34:51.677Z,43.73
2018-12-02T18:37:57.197Z,38.85
2018-12-02T18:41:07.624Z,38.60
2018-12-02T18:44:12.632Z,34.85
2018-12-02T18:47:16.341Z,38.60
2018-12-02T18:50:19.648Z,45.80
2018-12-02T18:53:23.175Z,44.40
2018-12-02T18:56:26.454Z,44.60
2018-12-02T18:59:29.802Z,41.47
2018-12-02T19:02:33.029Z,48.67
2018-12-02T19:05:36.435Z,49.00
2018-12-02T19:08:40.328Z,42.17
2018-12-02T19:11:43.881Z,49.87
2018-12-02T19:14:47.578Z,44.27
2018-12-02T19:17:51.604Z,45.07
2018-12-02T19:20:59.630Z,46.03
2018-12-02T19:24:03.124Z,53.00
2018-12-02T19:27:06.203Z,44.93
2018-12-02T19:30:11.086Z,49.07
2018-12-02T19:33:22.064Z,52.67
2018-12-02T19:36:35.343Z,47.83
2018-12-02T19:39:38.474Z,51.37
2018-12-02T19:42:41.532Z,45.53
2018-12-02T19:45:45.627Z,52.50
2018-12-02T19:48:48.747Z,46.57
2018-12-02T19:51:51.859Z,47.53
2018-12-02T19:54:54.927Z,52.17
2018-12-02T19:57:58.169Z,49.23
2018-12-02T20:01:01.295Z,62.10
2018-12-02T20:04:04.749Z,55.03
2018-12-02T20:07:07.808Z,51.63
2018-12-02T20:10:12.639Z,58.50
2018-12-02T20:13:17.755Z,44.60
2018-12-02T20:16:20.803Z,42.50
2018-12-02T20:19:29.567Z,48.27
2018-12-02T20:22:32.827Z,46.00
2018-12-02T20:25:35.991Z,44.17
2018-12-02T20:28:44.630Z,46.20
2018-12-02T20:31:48.251Z,52.73
2018-12-02T20:34:51.307Z,50.83
2018-12-02T20:37:54.535Z,44.87
2018-12-02T20:40:57.805Z,42.63
2018-12-02T20:44:00.939Z,50.80
2018-12-02T20:47:04.193Z,50.23
2018-12-02T20:50:09.260Z,51.23
2018-12-02T20:53:16.040Z,48.90
2018-12-02T20:56:15.643Z,49.60
2018-12-02T20:59:18.723Z,46.93
2018-12-02T21:02:21.841Z,44.83
2018-12-02T21:05:27.928Z,45.73
2018-12-02T21:08:30.968Z,47.45
2018-12-02T21:11:34.395Z,39.78
2018-12-02T21:14:37.455Z,51.05
2018-12-02T21:17:40.684Z,44.00
2018-12-02T21:20:43.740Z,37.20
2018-12-02T21:23:46.895Z,39.65
2018-12-02T21:26:50.147Z,40.83
2018-12-02T21:29:53.290Z,37.45
2018-12-02T21:32:56.419Z,37.53
2018-12-02T21:35:59.547Z,38.00
2018-12-02T21:39:02.779Z,31.23
2018-12-02T21:42:13.411Z,32.93
2018-12-02T21:45:17.281Z,31.52
2018-12-02T21:48:21.099Z,34.85
2018-12-02T21:51:24.311Z,34.58
2018-12-02T21:54:27.375Z,29.00
2018-12-02T21:57:30.623Z,27.00
2018-12-02T22:00:39.020Z,35.53
2018-12-02T22:03:42.519Z,30.30
2018-12-02T22:06:45.603Z,33.10
2018-12-02T22:09:48.923Z,29.35
2018-12-02T22:12:52.187Z,28.77
2018-12-02T22:15:55.296Z,34.43
2018-12-02T22:18:58.420Z,36.38
2018-12-02T22:22:01.863Z,30.88
2018-12-02T22:25:06.339Z,31.93
2018-12-02T22:28:09.586Z,25.60
2018-12-02T22:31:12.822Z,29.10
2018-12-02T22:34:15.923Z,28.25
2018-12-02T22:37:19.014Z,27.55
2018-12-02T22:40:23.247Z,26.75
2018-12-02T22:43:26.813Z,27.48
2018-12-02T22:46:29.894Z,28.77
2018-12-02T22:49:33.092Z,35.95
2018-12-02T22:52:36.287Z,29.95
2018-12-02T22:55:39.479Z,34.13
2018-12-02T22:58:42.711Z,28.40
2018-12-02T23:01:51.152Z,27.33
2018-12-02T23:04:54.327Z,29.87
2018-12-02T23:07:57.388Z,23.10
2018-12-02T23:11:01.308Z,22.32
2018-12-02T23:14:04.782Z,21.53
2018-12-02T23:17:16.404Z,21.62
2018-12-02T23:20:19.704Z,24.07
2018-12-02T23:23:22.879Z,23.00
2018-12-02T23:26:26.007Z,24.05
2018-12-02T23:29:29.192Z,20.37
2018-12-02T23:32:32.263Z,21.40
2018-12-02T23:35:35.979Z,22.87
2018-12-02T23:38:39.371Z,23.98
2018-12-02T23:41:43.358Z,26.85
2018-12-02T23:44:46.487Z,23.12
2018-12-02T23:47:49.569Z,24.80
2018-12-02T23:50:52.867Z,25.23
2018-12-02T23:53:56.282Z,21.48
2018-12-02T23:56:59.359Z,18.05
